Tallula, Illinois
Current Conditions -  °F | °C
As of 1:52 PM on Thursday 27 Nov 2014 (Local Time) from KSPI Reporting Station
Light Snow Light Snow  
Wind Chill: 13°   Ceiling: 2200
Heat Index: 26°   Visibility: 9mi
Dew Point: 18°   Wind: 17mph
Humidity: 71%   Direction: 300°WNW
Pressure: 30.45"   Gusts: 23mph
Location:  39.94°N, 89.94°W
Report Text: KSPI 271952Z 30015G20KT 9SM -SN OVC022 M03/M08 A3045 RMK AO2 SLP318 P0000 T10331078
Loading
Personal Weather Stations






























Interactive Weather Map New forecast layout! Learn more

10-Day Weather Forecast

Advertisements
Track Severe Weather on mobile